sensor_id;sensor_type;location;lat;lon;timestamp;pressure;altitude;pressure_sealevel;temperature;humidity
63115;BME280;49208;50.874;6.466;2023-02-13T07:01:33;102480.44;;;2.19;100.00
63115;BME280;49208;50.874;6.466;2023-02-13T07:03:58;102481.44;;;2.22;100.00
63115;BME280;49208;50.874;6.466;2023-02-13T07:06:24;102486.81;;;2.27;100.00
63115;BME280;49208;50.874;6.466;2023-02-13T07:08:49;102486.09;;;2.31;100.00
63115;BME280;49208;50.874;6.466;2023-02-13T07:11:20;102477.41;;;2.34;100.00
63115;BME280;49208;50.874;6.466;2023-02-13T07:13:45;102487.09;;;2.36;100.00
63115;BME280;49208;50.874;6.466;2023-02-13T07:16:11;102488.97;;;2.39;100.00
63115;BME280;49208;50.874;6.466;2023-02-13T07:18:36;102484.66;;;2.42;100.00
63115;BME280;49208;50.874;6.466;2023-02-13T07:21:02;102490.09;;;2.49;100.00
63115;BME280;49208;50.874;6.466;2023-02-13T07:23:27;102496.34;;;2.52;100.00
63115;BME280;49208;50.874;6.466;2023-02-13T07:25:53;102488.66;;;2.58;100.00
63115;BME280;49208;50.874;6.466;2023-02-13T07:28:18;102494.03;;;2.61;100.00
63115;BME280;49208;50.874;6.466;2023-02-13T07:30:43;102488.97;;;2.69;100.00
63115;BME280;49208;50.874;6.466;2023-02-13T07:33:09;102483.06;;;2.76;100.00
63115;BME280;49208;50.874;6.466;2023-02-13T07:35:34;102476.28;;;2.85;100.00
63115;BME280;49208;50.874;6.466;2023-02-13T07:38:02;102483.59;;;2.95;100.00
63115;BME280;49208;50.874;6.466;2023-02-13T07:40:28;102477.06;;;3.12;100.00
63115;BME280;49208;50.874;6.466;2023-02-13T07:42:53;102474.28;;;3.39;100.00
63115;BME280;49208;50.874;6.466;2023-02-13T07:45:19;102470.09;;;3.81;100.00
63115;BME280;49208;50.874;6.466;2023-02-13T07:47:44;102471.81;;;4.17;100.00
63115;BME280;49208;50.874;6.466;2023-02-13T07:50:10;102469.47;;;4.69;100.00
63115;BME280;49208;50.874;6.466;2023-02-13T07:52:36;102473.38;;;5.33;100.00
63115;BME280;49208;50.874;6.466;2023-02-13T07:55:02;102469.75;;;6.30;100.00
63115;BME280;49208;50.874;6.466;2023-02-13T07:57:28;102470.41;;;7.59;100.00
63115;BME280;49208;50.874;6.466;2023-02-13T07:59:55;102466.00;;;8.94;89.88
63115;BME280;49208;50.874;6.466;2023-02-13T08:02:21;102468.84;;;10.11;83.60
63115;BME280;49208;50.874;6.466;2023-02-13T08:04:46;102467.63;;;11.20;76.30
63115;BME280;49208;50.874;6.466;2023-02-13T08:07:13;102470.06;;;11.53;72.80
63115;BME280;49208;50.874;6.466;2023-02-13T08:09:38;102470.28;;;12.36;68.46
63115;BME280;49208;50.874;6.466;2023-02-13T08:12:22;102470.28;;;13.08;62.63
63115;BME280;49208;50.874;6.466;2023-02-13T08:14:48;102473.28;;;13.52;61.60
63115;BME280;49208;50.874;6.466;2023-02-13T08:17:13;102472.78;;;13.83;59.40
63115;BME280;49208;50.874;6.466;2023-02-13T08:19:39;102478.41;;;14.17;59.45
63115;BME280;49208;50.874;6.466;2023-02-13T08:22:04;102477.47;;;14.21;57.66
63115;BME280;49208;50.874;6.466;2023-02-13T08:24:31;102476.59;;;14.21;56.87
63115;BME280;49208;50.874;6.466;2023-02-13T08:26:57;102483.31;;;13.92;57.43
63115;BME280;49208;50.874;6.466;2023-02-13T08:29:22;102480.13;;;14.23;57.24
63115;BME280;49208;50.874;6.466;2023-02-13T08:31:47;102475.72;;;14.67;58.51
63115;BME280;49208;50.874;6.466;2023-02-13T08:34:13;102484.56;;;14.73;54.58
63115;BME280;49208;50.874;6.466;2023-02-13T08:36:38;102486.31;;;15.16;53.72
63115;BME280;49208;50.874;6.466;2023-02-13T08:39:04;102487.81;;;14.88;54.99
63115;BME280;49208;50.874;6.466;2023-02-13T08:41:29;102488.34;;;15.05;56.35
63115;BME280;49208;50.874;6.466;2023-02-13T08:43:54;102483.94;;;15.42;51.57
63115;BME280;49208;50.874;6.466;2023-02-13T08:46:20;102485.84;;;15.38;53.00
63115;BME280;49208;50.874;6.466;2023-02-13T08:48:45;102492.97;;;15.78;51.97
63115;BME280;49208;50.874;6.466;2023-02-13T08:51:12;102488.88;;;15.98;50.04
63115;BME280;49208;50.874;6.466;2023-02-13T08:53:38;102488.88;;;16.33;50.12
63115;BME280;49208;50.874;6.466;2023-02-13T08:56:05;102492.06;;;16.13;49.81
63115;BME280;49208;50.874;6.466;2023-02-13T08:58:30;102486.09;;;16.36;49.67
63115;BME280;49208;50.874;6.466;2023-02-13T09:00:56;102490.19;;;16.17;50.08
63115;BME280;49208;50.874;6.466;2023-02-13T09:03:22;102483.44;;;16.02;49.74
63115;BME280;49208;50.874;6.466;2023-02-13T09:05:47;102484.13;;;16.10;50.91
63115;BME280;49208;50.874;6.466;2023-02-13T09:08:13;102476.13;;;16.07;49.65
63115;BME280;49208;50.874;6.466;2023-02-13T09:10:40;102479.25;;;15.90;49.78
63115;BME280;49208;50.874;6.466;2023-02-13T09:13:06;102477.16;;;16.02;50.36
63115;BME280;49208;50.874;6.466;2023-02-13T09:15:32;102478.56;;;15.43;51.87
63115;BME280;49208;50.874;6.466;2023-02-13T09:17:58;102477.38;;;15.94;54.16
63115;BME280;49208;50.874;6.466;2023-02-13T09:20:23;102481.75;;;15.59;51.29
63115;BME280;49208;50.874;6.466;2023-02-13T09:22:49;102478.38;;;15.12;53.86
63115;BME280;49208;50.874;6.466;2023-02-13T09:25:14;102484.19;;;14.44;55.08
63115;BME280;49208;50.874;6.466;2023-02-13T09:27:39;102481.16;;;14.15;59.54
63115;BME280;49208;50.874;6.466;2023-02-13T09:30:06;102481.88;;;13.71;57.69
63115;BME280;49208;50.874;6.466;2023-02-13T09:32:33;102483.81;;;12.99;58.96
63115;BME280;49208;50.874;6.466;2023-02-13T09:34:58;102493.50;;;12.26;61.85
63115;BME280;49208;50.874;6.466;2023-02-13T09:37:24;102486.94;;;11.57;63.85
63115;BME280;49208;50.874;6.466;2023-02-13T09:39:51;102484.59;;;11.00;68.31
63115;BME280;49208;50.874;6.466;2023-02-13T09:42:28;102488.22;;;10.91;71.77
63115;BME280;49208;50.874;6.466;2023-02-13T09:44:59;102488.25;;;10.78;70.80
63115;BME280;49208;50.874;6.466;2023-02-13T09:47:27;102491.81;;;10.64;70.98
63115;BME280;49208;50.874;6.466;2023-02-13T09:50:13;102495.38;;;10.66;70.89
63115;BME280;49208;50.874;6.466;2023-02-13T09:52:42;102501.56;;;10.75;70.39
63115;BME280;49208;50.874;6.466;2023-02-13T09:55:26;102501.59;;;10.64;71.71
63115;BME280;49208;50.874;6.466;2023-02-13T09:58:06;102504.25;;;10.70;73.37
63115;BME280;49208;50.874;6.466;2023-02-13T10:00:38;102503.34;;;10.72;71.25
63115;BME280;49208;50.874;6.466;2023-02-13T10:03:26;102494.56;;;10.35;70.86
63115;BME280;49208;50.874;6.466;2023-02-13T10:08:53;102505.19;;;10.50;71.49
63115;BME280;49208;50.874;6.466;2023-02-13T10:14:37;102507.81;;;10.58;72.89
63115;BME280;49208;50.874;6.466;2023-02-13T10:17:13;102506.97;;;10.53;71.31
63115;BME280;49208;50.874;6.466;2023-02-13T10:22:14;102506.97;;;10.45;72.67
63115;BME280;49208;50.874;6.466;2023-02-13T10:24:54;102512.31;;;10.50;73.42
63115;BME280;49208;50.874;6.466;2023-02-13T10:27:24;102511.38;;;10.63;75.37
63115;BME280;49208;50.874;6.466;2023-02-13T10:30:07;102509.59;;;10.64;72.07
63115;BME280;49208;50.874;6.466;2023-02-13T10:37:41;102504.22;;;10.76;71.39
63115;BME280;49208;50.874;6.466;2023-02-13T10:40:10;102495.38;;;10.71;71.87
63115;BME280;49208;50.874;6.466;2023-02-13T10:42:51;102497.13;;;10.78;70.37
63115;BME280;49208;50.874;6.466;2023-02-13T10:57:01;102490.75;;;11.10;69.98
63115;BME280;49208;50.874;6.466;2023-02-13T11:02:24;102482.69;;;11.25;69.23
63115;BME280;49208;50.874;6.466;2023-02-13T11:05:01;102480.06;;;11.21;70.67
63115;BME280;49208;50.874;6.466;2023-02-13T11:07:35;102478.25;;;11.27;68.98
63115;BME280;49208;50.874;6.466;2023-02-13T11:10:07;102467.63;;;11.20;69.18
63115;BME280;49208;50.874;6.466;2023-02-13T11:12:37;102464.91;;;11.26;69.44
63115;BME280;49208;50.874;6.466;2023-02-13T11:15:05;102459.59;;;11.29;69.35
63115;BME280;49208;50.874;6.466;2023-02-13T11:17:34;102460.47;;;11.29;69.47
63115;BME280;49208;50.874;6.466;2023-02-13T11:20:04;102462.22;;;11.35;70.15
63115;BME280;49208;50.874;6.466;2023-02-13T11:22:33;102460.41;;;11.37;70.92
63115;BME280;49208;50.874;6.466;2023-02-13T11:25:06;102455.84;;;11.53;70.48
63115;BME280;49208;50.874;6.466;2023-02-13T11:27:35;102454.00;;;11.61;69.80
63115;BME280;49208;50.874;6.466;2023-02-13T11:30:29;102449.44;;;11.76;69.92
63115;BME280;49208;50.874;6.466;2023-02-13T11:33:01;102448.41;;;11.98;69.66
63115;BME280;49208;50.874;6.466;2023-02-13T11:35:32;102450.97;;;12.09;66.45
63115;BME280;49208;50.874;6.466;2023-02-13T11:38:21;102445.78;;;11.90;66.96
63115;BME280;49208;50.874;6.466;2023-02-13T11:41:11;102435.94;;;11.99;68.86
63115;BME280;49208;50.874;6.466;2023-02-13T11:43:47;102443.00;;;12.03;67.68
63115;BME280;49208;50.874;6.466;2023-02-13T11:46:18;102431.41;;;12.08;68.59
63115;BME280;49208;50.874;6.466;2023-02-13T11:51:37;102421.34;;;12.33;67.30
63115;BME280;49208;50.874;6.466;2023-02-13T11:54:04;102419.47;;;12.43;66.89
63115;BME280;49208;50.874;6.466;2023-02-13T11:56:46;102417.53;;;12.53;67.11
63115;BME280;49208;50.874;6.466;2023-02-13T11:59:12;102418.41;;;12.55;65.89
63115;BME280;49208;50.874;6.466;2023-02-13T12:01:38;102417.44;;;12.62;65.79
63115;BME280;49208;50.874;6.466;2023-02-13T12:04:05;102411.16;;;12.65;66.47
63115;BME280;49208;50.874;6.466;2023-02-13T12:06:31;102405.91;;;12.60;63.76
63115;BME280;49208;50.874;6.466;2023-02-13T12:09:04;102407.56;;;12.69;66.31
63115;BME280;49208;50.874;6.466;2023-02-13T12:11:44;102406.47;;;12.82;64.86
63115;BME280;49208;50.874;6.466;2023-02-13T12:14:21;102408.34;;;12.77;65.20
63115;BME280;49208;50.874;6.466;2023-02-13T12:16:50;102398.63;;;12.71;64.72
63115;BME280;49208;50.874;6.466;2023-02-13T12:19:30;102402.28;;;12.64;64.55
63115;BME280;49208;50.874;6.466;2023-02-13T12:22:27;102403.97;;;12.70;66.60
63115;BME280;49208;50.874;6.466;2023-02-13T12:32:49;102389.47;;;12.91;64.51
63115;BME280;49208;50.874;6.466;2023-02-13T12:38:51;102390.16;;;13.04;64.76
63115;BME280;49208;50.874;6.466;2023-02-13T12:41:29;102388.34;;;13.06;63.79
63115;BME280;49208;50.874;6.466;2023-02-13T12:44:10;102377.66;;;13.06;62.94
63115;BME280;49208;50.874;6.466;2023-02-13T12:52:37;102374.97;;;13.06;62.52
63115;BME280;49208;50.874;6.466;2023-02-13T13:05:46;102360.50;;;13.21;63.10
63115;BME280;49208;50.874;6.466;2023-02-13T13:18:56;102347.28;;;13.10;63.54
63115;BME280;49208;50.874;6.466;2023-02-13T13:21:47;102346.53;;;13.00;64.07
63115;BME280;49208;50.874;6.466;2023-02-13T13:27:01;102331.16;;;13.16;64.59
63115;BME280;49208;50.874;6.466;2023-02-13T13:32:01;102333.47;;;13.39;63.87
63115;BME280;49208;50.874;6.466;2023-02-13T13:34:30;102333.50;;;13.38;63.23
63115;BME280;49208;50.874;6.466;2023-02-13T13:48:04;102312.66;;;13.01;64.30
63115;BME280;49208;50.874;6.466;2023-02-13T13:50:38;102316.19;;;13.04;64.02
63115;BME280;49208;50.874;6.466;2023-02-13T14:03:38;102319.16;;;12.84;64.03
63115;BME280;49208;50.874;6.466;2023-02-13T14:06:07;102309.41;;;12.80;63.30
63115;BME280;49208;50.874;6.466;2023-02-13T14:13:33;102312.16;;;12.76;63.59
63115;BME280;49208;50.874;6.466;2023-02-13T14:16:00;102316.66;;;12.72;63.29
63115;BME280;49208;50.874;6.466;2023-02-13T14:18:26;102309.56;;;12.71;64.16
63115;BME280;49208;50.874;6.466;2023-02-13T14:20:55;102308.78;;;12.64;64.39
63115;BME280;49208;50.874;6.466;2023-02-13T14:28:34;102299.97;;;12.58;64.54
63115;BME280;49208;50.874;6.466;2023-02-13T14:31:13;102299.91;;;12.61;63.61
63115;BME280;49208;50.874;6.466;2023-02-13T14:33:41;102288.38;;;12.57;63.51
63115;BME280;49208;50.874;6.466;2023-02-13T14:36:16;102300.78;;;12.61;63.99
63115;BME280;49208;50.874;6.466;2023-02-13T14:38:44;102292.81;;;12.58;64.05
63115;BME280;49208;50.874;6.466;2023-02-13T14:44:22;102290.19;;;12.55;64.18
63115;BME280;49208;50.874;6.466;2023-02-13T14:46:50;102289.38;;;12.50;62.74
63115;BME280;49208;50.874;6.466;2023-02-13T14:49:20;102284.03;;;12.51;64.24
63115;BME280;49208;50.874;6.466;2023-02-13T14:51:52;102284.06;;;12.48;63.48
63115;BME280;49208;50.874;6.466;2023-02-13T14:56:59;102273.38;;;12.47;64.57
63115;BME280;49208;50.874;6.466;2023-02-13T14:59:30;102271.63;;;12.47;64.90
63115;BME280;49208;50.874;6.466;2023-02-13T15:02:07;102270.72;;;12.47;64.30
63115;BME280;49208;50.874;6.466;2023-02-13T15:07:04;102271.63;;;12.44;64.40
63115;BME280;49208;50.874;6.466;2023-02-13T15:09:38;102272.59;;;12.40;64.63
63115;BME280;49208;50.874;6.466;2023-02-13T15:12:31;102269.03;;;12.40;64.96
63115;BME280;49208;50.874;6.466;2023-02-13T15:14:58;102267.25;;;12.40;63.84
63115;BME280;49208;50.874;6.466;2023-02-13T15:17:28;102266.44;;;12.35;63.75
63115;BME280;49208;50.874;6.466;2023-02-13T15:20:02;102263.84;;;12.29;64.96
63115;BME280;49208;50.874;6.466;2023-02-13T15:22:34;102260.28;;;12.28;64.21
63115;BME280;49208;50.874;6.466;2023-02-13T15:25:00;102264.81;;;12.22;64.97
63115;BME280;49208;50.874;6.466;2023-02-13T15:27:32;102256.88;;;12.17;64.79
63115;BME280;49208;50.874;6.466;2023-02-13T15:30:13;102259.56;;;12.17;63.90
63115;BME280;49208;50.874;6.466;2023-02-13T15:32:42;102256.94;;;12.14;64.17
63115;BME280;49208;50.874;6.466;2023-02-13T15:35:30;102263.19;;;12.11;64.84
63115;BME280;49208;50.874;6.466;2023-02-13T15:37:57;102263.25;;;12.05;65.11
63115;BME280;49208;50.874;6.466;2023-02-13T15:40:32;102262.44;;;12.02;65.06
63115;BME280;49208;50.874;6.466;2023-02-13T15:43:00;102259.84;;;11.96;65.53
63115;BME280;49208;50.874;6.466;2023-02-13T15:45:27;102255.44;;;11.90;65.10
63115;BME280;49208;50.874;6.466;2023-02-13T15:47:53;102257.22;;;11.86;64.86
63115;BME280;49208;50.874;6.466;2023-02-13T15:52:52;102259.91;;;11.85;64.90
63115;BME280;49208;50.874;6.466;2023-02-13T15:55:26;102259.97;;;11.80;65.14
63115;BME280;49208;50.874;6.466;2023-02-13T15:57:57;102258.22;;;11.76;65.07
63115;BME280;49208;50.874;6.466;2023-02-13T16:00:35;102255.66;;;11.68;65.64
63115;BME280;49208;50.874;6.466;2023-02-13T16:03:03;102263.75;;;11.61;65.96
63115;BME280;49208;50.874;6.466;2023-02-13T16:05:36;102263.81;;;11.53;65.84
63115;BME280;49208;50.874;6.466;2023-02-13T16:08:02;102272.75;;;11.50;65.58
63115;BME280;49208;50.874;6.466;2023-02-13T16:10:30;102263.94;;;11.44;66.01
63115;BME280;49208;50.874;6.466;2023-02-13T16:13:16;102270.25;;;11.32;66.67
63115;BME280;49208;50.874;6.466;2023-02-13T16:15:42;102270.34;;;11.23;66.91
63115;BME280;49208;50.874;6.466;2023-02-13T16:18:18;102272.19;;;11.15;67.13
63115;BME280;49208;50.874;6.466;2023-02-13T16:20:45;102269.59;;;11.07;67.01
63115;BME280;49208;50.874;6.466;2023-02-13T16:23:16;102269.66;;;10.99;67.50
63115;BME280;49208;50.874;6.466;2023-02-13T16:25:45;102265.31;;;10.87;68.23
63115;BME280;49208;50.874;6.466;2023-02-13T16:28:20;102275.16;;;10.75;68.72
63115;BME280;49208;50.874;6.466;2023-02-13T16:30:58;102271.69;;;10.65;68.61
63115;BME280;49208;50.874;6.466;2023-02-13T16:33:27;102269.97;;;10.55;69.45
63115;BME280;49208;50.874;6.466;2023-02-13T16:35:58;102270.91;;;10.43;69.84
63115;BME280;49208;50.874;6.466;2023-02-13T16:38:36;102267.44;;;10.30;70.42
63115;BME280;49208;50.874;6.466;2023-02-13T16:41:27;102263.94;;;10.16;70.96
63115;BME280;49208;50.874;6.466;2023-02-13T16:43:54;102271.97;;;10.05;71.37
63115;BME280;49208;50.874;6.466;2023-02-13T16:54:03;102275.63;;;9.64;72.77
63115;BME280;49208;50.874;6.466;2023-02-13T17:05:22;102273.03;;;9.15;74.69
63115;BME280;49208;50.874;6.466;2023-02-13T17:07:50;102274.81;;;9.02;75.22
63115;BME280;49208;50.874;6.466;2023-02-13T17:12:43;102270.38;;;8.76;76.38
63115;BME280;49208;50.874;6.466;2023-02-13T17:15:10;102275.66;;;8.62;76.80
63115;BME280;49208;50.874;6.466;2023-02-13T17:17:37;102281.81;;;8.50;77.50
63115;BME280;49208;50.874;6.466;2023-02-13T17:20:02;102283.53;;;8.39;78.30
63115;BME280;49208;50.874;6.466;2023-02-13T17:22:41;102286.13;;;8.25;78.74
63115;BME280;49208;50.874;6.466;2023-02-13T17:25:14;102294.06;;;8.16;80.01
63115;BME280;49208;50.874;6.466;2023-02-13T17:27:40;102302.00;;;8.12;80.62
63115;BME280;49208;50.874;6.466;2023-02-13T17:30:11;102302.88;;;8.07;81.32
63115;BME280;49208;50.874;6.466;2023-02-13T17:32:36;102302.81;;;8.04;81.42
63115;BME280;49208;50.874;6.466;2023-02-13T17:35:02;102306.38;;;8.05;82.44
63115;BME280;49208;50.874;6.466;2023-02-13T17:37:27;102296.66;;;8.07;82.68
63115;BME280;49208;50.874;6.466;2023-02-13T17:39:54;102297.53;;;8.04;82.60
63115;BME280;49208;50.874;6.466;2023-02-13T17:42:24;102293.97;;;7.99;82.69
63115;BME280;49208;50.874;6.466;2023-02-13T17:44:51;102297.47;;;7.89;82.63
63115;BME280;49208;50.874;6.466;2023-02-13T17:47:16;102309.78;;;7.79;83.03
63115;BME280;49208;50.874;6.466;2023-02-13T17:49:42;102307.97;;;7.71;83.62
63115;BME280;49208;50.874;6.466;2023-02-13T17:52:11;102307.91;;;7.64;84.50
63115;BME280;49208;50.874;6.466;2023-02-13T17:54:38;102309.63;;;7.59;84.72
63115;BME280;49208;50.874;6.466;2023-02-13T17:57:03;102300.78;;;7.54;85.30
63115;BME280;49208;50.874;6.466;2023-02-13T17:59:30;102314.91;;;7.52;86.07
63115;BME280;49208;50.874;6.466;2023-02-13T18:01:55;102315.75;;;7.51;86.46
63115;BME280;49208;50.874;6.466;2023-02-13T18:04:20;102314.00;;;7.51;86.63
63115;BME280;49208;50.874;6.466;2023-02-13T18:06:50;102316.63;;;7.48;86.76
63115;BME280;49208;50.874;6.466;2023-02-13T18:09:15;102307.78;;;7.43;87.16
63115;BME280;49208;50.874;6.466;2023-02-13T18:11:40;102313.03;;;7.38;87.49
63115;BME280;49208;50.874;6.466;2023-02-13T18:14:06;102311.22;;;7.33;87.59
63115;BME280;49208;50.874;6.466;2023-02-13T18:16:31;102306.75;;;7.27;88.08
63115;BME280;49208;50.874;6.466;2023-02-13T18:18:57;102311.13;;;7.20;88.35
63115;BME280;49208;50.874;6.466;2023-02-13T18:21:22;102313.69;;;7.13;88.63
63115;BME280;49208;50.874;6.466;2023-02-13T18:23:51;102315.41;;;7.04;88.92
63115;BME280;49208;50.874;6.466;2023-02-13T18:26:17;102311.75;;;6.95;89.26
63115;BME280;49208;50.874;6.466;2023-02-13T18:28:42;102315.19;;;6.84;89.56
63115;BME280;49208;50.874;6.466;2023-02-13T18:31:08;102307.19;;;6.75;89.99
63115;BME280;49208;50.874;6.466;2023-02-13T18:33:35;102309.72;;;6.64;90.41
63115;BME280;49208;50.874;6.466;2023-02-13T18:36:01;102306.03;;;6.53;90.69
63115;BME280;49208;50.874;6.466;2023-02-13T18:38:40;102311.22;;;6.42;91.36
63115;BME280;49208;50.874;6.466;2023-02-13T18:41:05;102303.16;;;6.32;91.84
63115;BME280;49208;50.874;6.466;2023-02-13T18:43:30;102301.31;;;6.23;92.46
63115;BME280;49208;50.874;6.466;2023-02-13T18:45:56;102302.06;;;6.14;92.95
63115;BME280;49208;50.874;6.466;2023-02-13T18:48:21;102297.56;;;6.07;93.70
63115;BME280;49208;50.874;6.466;2023-02-13T18:50:47;102300.09;;;5.99;93.96
63115;BME280;49208;50.874;6.466;2023-02-13T18:53:12;102291.22;;;5.94;94.34
63115;BME280;49208;50.874;6.466;2023-02-13T18:55:38;102291.97;;;5.87;94.84
63115;BME280;49208;50.874;6.466;2023-02-13T18:58:03;102293.63;;;5.79;95.25
63115;BME280;49208;50.874;6.466;2023-02-13T19:00:29;102296.19;;;5.73;95.71
63115;BME280;49208;50.874;6.466;2023-02-13T19:02:54;102297.91;;;5.69;96.11
63115;BME280;49208;50.874;6.466;2023-02-13T19:05:21;102293.47;;;5.66;96.30
63115;BME280;49208;50.874;6.466;2023-02-13T19:07:47;102303.13;;;5.64;96.40
63115;BME280;49208;50.874;6.466;2023-02-13T19:10:12;102299.59;;;5.62;96.90
63115;BME280;49208;50.874;6.466;2023-02-13T19:12:39;102303.06;;;5.61;96.81
63115;BME280;49208;50.874;6.466;2023-02-13T19:15:06;102296.06;;;5.63;96.77
63115;BME280;49208;50.874;6.466;2023-02-13T19:17:33;102297.03;;;5.69;97.10
63115;BME280;49208;50.874;6.466;2023-02-13T19:19:59;102300.56;;;5.69;96.29
63115;BME280;49208;50.874;6.466;2023-02-13T19:22:24;102300.66;;;5.75;96.25
63115;BME280;49208;50.874;6.466;2023-02-13T19:24:50;102307.75;;;5.81;95.26
63115;BME280;49208;50.874;6.466;2023-02-13T19:27:15;102310.41;;;5.79;95.12
63115;BME280;49208;50.874;6.466;2023-02-13T19:29:41;102315.63;;;5.76;94.93
63115;BME280;49208;50.874;6.466;2023-02-13T19:32:07;102312.88;;;5.70;94.68
63115;BME280;49208;50.874;6.466;2023-02-13T19:34:32;102311.06;;;5.66;94.80
63115;BME280;49208;50.874;6.466;2023-02-13T19:36:57;102312.75;;;5.61;94.66
63115;BME280;49208;50.874;6.466;2023-02-13T19:39:23;102319.72;;;5.54;95.19
63115;BME280;49208;50.874;6.466;2023-02-13T19:41:48;102312.63;;;5.53;95.35
63115;BME280;49208;50.874;6.466;2023-02-13T19:44:13;102314.38;;;5.51;95.34
63115;BME280;49208;50.874;6.466;2023-02-13T19:46:39;102309.97;;;5.50;95.27
63115;BME280;49208;50.874;6.466;2023-02-13T19:49:05;102316.06;;;5.46;95.52
63115;BME280;49208;50.874;6.466;2023-02-13T19:51:31;102308.91;;;5.40;95.41
63115;BME280;49208;50.874;6.466;2023-02-13T19:54:07;102315.91;;;5.37;95.19
63115;BME280;49208;50.874;6.466;2023-02-13T19:56:36;102322.03;;;5.34;95.49
63115;BME280;49208;50.874;6.466;2023-02-13T19:59:02;102322.03;;;5.34;95.51
63115;BME280;49208;50.874;6.466;2023-02-13T20:01:28;102322.00;;;5.33;95.64
63115;BME280;49208;50.874;6.466;2023-02-13T20:03:54;102316.63;;;5.26;95.27
63115;BME280;49208;50.874;6.466;2023-02-13T20:06:23;102320.91;;;5.20;95.24
63115;BME280;49208;50.874;6.466;2023-02-13T20:08:49;102320.81;;;5.14;95.93
63115;BME280;49208;50.874;6.466;2023-02-13T20:11:16;102317.13;;;5.05;95.44
63115;BME280;49208;50.874;6.466;2023-02-13T20:13:42;102319.59;;;4.95;95.94
63115;BME280;49208;50.874;6.466;2023-02-13T20:16:11;102319.41;;;4.84;95.81
63115;BME280;49208;50.874;6.466;2023-02-13T20:18:37;102311.31;;;4.75;96.48
63115;BME280;49208;50.874;6.466;2023-02-13T20:21:07;102313.91;;;4.72;97.05
63115;BME280;49208;50.874;6.466;2023-02-13T20:23:32;102319.09;;;4.69;96.96
63115;BME280;49208;50.874;6.466;2023-02-13T20:26:03;102321.63;;;4.62;97.21
63115;BME280;49208;50.874;6.466;2023-02-13T20:28:29;102320.72;;;4.59;97.67
63115;BME280;49208;50.874;6.466;2023-02-13T20:30:54;102319.75;;;4.55;97.91
63115;BME280;49208;50.874;6.466;2023-02-13T20:33:19;102324.19;;;4.58;98.32
63115;BME280;49208;50.874;6.466;2023-02-13T20:35:45;102321.59;;;4.59;98.43
63115;BME280;49208;50.874;6.466;2023-02-13T20:38:10;102326.94;;;4.64;98.43
63115;BME280;49208;50.874;6.466;2023-02-13T20:40:37;102326.97;;;4.65;97.90
63115;BME280;49208;50.874;6.466;2023-02-13T20:43:03;102329.66;;;4.69;98.36
63115;BME280;49208;50.874;6.466;2023-02-13T20:45:28;102325.34;;;4.72;98.37
63115;BME280;49208;50.874;6.466;2023-02-13T20:47:53;102334.25;;;4.77;98.16
63115;BME280;49208;50.874;6.466;2023-02-13T20:50:19;102327.28;;;4.82;97.55
63115;BME280;49208;50.874;6.466;2023-02-13T20:52:44;102326.53;;;4.88;97.40
63115;BME280;49208;50.874;6.466;2023-02-13T20:55:10;102331.00;;;4.92;96.98
63115;BME280;49208;50.874;6.466;2023-02-13T20:57:35;102328.44;;;4.97;96.65
63115;BME280;49208;50.874;6.466;2023-02-13T21:00:03;102331.09;;;4.98;96.99
63115;BME280;49208;50.874;6.466;2023-02-13T21:02:29;102331.19;;;5.03;96.84
63115;BME280;49208;50.874;6.466;2023-02-13T21:04:54;102322.41;;;5.05;96.45
63115;BME280;49208;50.874;6.466;2023-02-13T21:07:20;102325.09;;;5.07;95.99
63115;BME280;49208;50.874;6.466;2023-02-13T21:09:46;102319.84;;;5.10;95.58
63115;BME280;49208;50.874;6.466;2023-02-13T21:12:11;102312.88;;;5.14;95.07
63115;BME280;49208;50.874;6.466;2023-02-13T21:14:37;102319.06;;;5.16;94.57
63115;BME280;49208;50.874;6.466;2023-02-13T21:17:04;102322.66;;;5.19;94.07
63115;BME280;49208;50.874;6.466;2023-02-13T21:19:29;102320.06;;;5.22;93.42
63115;BME280;49208;50.874;6.466;2023-02-13T21:21:55;102316.53;;;5.22;93.07
63115;BME280;49208;50.874;6.466;2023-02-13T21:24:36;102320.06;;;5.21;93.17
63115;BME280;49208;50.874;6.466;2023-02-13T21:27:01;102316.47;;;5.17;92.95
63115;BME280;49208;50.874;6.466;2023-02-13T21:29:27;102326.13;;;5.15;93.05
63115;BME280;49208;50.874;6.466;2023-02-13T21:31:52;102320.72;;;5.09;93.01
63115;BME280;49208;50.874;6.466;2023-02-13T21:34:18;102315.38;;;5.04;93.09
63115;BME280;49208;50.874;6.466;2023-02-13T21:36:44;102312.66;;;5.01;92.77
63115;BME280;49208;50.874;6.466;2023-02-13T21:39:10;102310.81;;;4.94;93.17
63115;BME280;49208;50.874;6.466;2023-02-13T21:41:38;102311.53;;;4.87;93.47
63115;BME280;49208;50.874;6.466;2023-02-13T21:44:04;102310.59;;;4.82;93.79
63115;BME280;49208;50.874;6.466;2023-02-13T21:46:31;102308.75;;;4.78;93.62
63115;BME280;49208;50.874;6.466;2023-02-13T21:48:59;102306.84;;;4.71;93.73
63115;BME280;49208;50.874;6.466;2023-02-13T21:51:25;102298.81;;;4.64;94.58
63115;BME280;49208;50.874;6.466;2023-02-13T21:53:51;102296.06;;;4.58;94.35
63115;BME280;49208;50.874;6.466;2023-02-13T21:56:22;102302.19;;;4.57;94.27
63115;BME280;49208;50.874;6.466;2023-02-13T21:58:48;102295.97;;;4.54;94.59
63115;BME280;49208;50.874;6.466;2023-02-13T22:01:25;102304.66;;;4.48;94.32
63115;BME280;49208;50.874;6.466;2023-02-13T22:03:51;102298.31;;;4.38;94.29
63115;BME280;49208;50.874;6.466;2023-02-13T22:06:18;102299.91;;;4.30;95.12
63115;BME280;49208;50.874;6.466;2023-02-13T22:08:44;102298.00;;;4.21;95.40
63115;BME280;49208;50.874;6.466;2023-02-13T22:11:10;102299.63;;;4.16;95.68
63115;BME280;49208;50.874;6.466;2023-02-13T22:13:36;102296.91;;;4.12;96.12
63115;BME280;49208;50.874;6.466;2023-02-13T22:16:11;102298.72;;;4.14;97.03
63115;BME280;49208;50.874;6.466;2023-02-13T22:18:39;102306.63;;;4.14;96.61
63115;BME280;49208;50.874;6.466;2023-02-13T22:21:09;102296.16;;;4.17;97.22